Chifeng, China
Current Conditions -  °F | °C
As of 2:30 PM on Friday 19 Dec 2014 (Local Time) from ZBAA Reporting Station
Clear Clear  
Wind Chill: 31°   Ceiling: Unl
Heat Index: 41°   Visibility: 6mi
Dew Point:   Wind: 25mph
Humidity: 19%   Direction: 310°NW
Pressure: 30.24"   Gusts: 36mph
Location:  42.27°N, 118.95°E
Report Text: ZBAA 190630Z 31011G16MPS CAVOK 05/M17 Q1024 WS ALL RWY NOSIG
Loading
Personal Weather Stations






























Interactive Weather Map New forecast layout! Learn more

10-Day Weather Forecast

Advertisements
Track Severe Weather on mobile